Nearby METAR Reports

 

KSFB - Sanford/Orlando, Florida, USA
Distance from station: Α 8mi, 12km
Ενημερώθηκε: Fri 09/21/18 4:53pm EDT
Αίθριος
Αίθριος
 Ανεμος από Α
Ανεμος: Α 17 mph , 28 km/h
Θερμοκρασία: 88°F , 31°C
Heat Index: 93°F , 34°C
Σημείο Δρόσου: 70°F , 21°C
Υγρασία: 55%
Βαρόμετρο: 30.02 inHg , 1016.6 hPa
Clouds: Αίθριος
Visibility: 10 miles , 16 km
2018/09/21 20:53 KSFB 212053Z 09015KT 10SM CLR 31/21 A3002 RMK AO2 SLP163 60002 T03060211 58018
KORL - Orlando, Florida, USA
Distance from station: Ν 15mi, 24km
Ενημερώθηκε: Fri 09/21/18 4:53pm EDT
Αίθριος
Αίθριος
 Ανεμος από Α
Ανεμος: Α 14 mph , 22 km/h
Θερμοκρασία: 88°F , 31°C
Heat Index: 95°F , 35°C
Σημείο Δρόσου: 72°F , 22°C
Υγρασία: 59%
Βαρόμετρο: 30.01 inHg , 1016.3 hPa
Clouds: Αίθριος
Visibility: 10 miles , 16 km
2018/09/21 20:53 KORL 212053Z 08012KT 10SM CLR 31/22 A3001 RMK AO2 SLP164 T03110217 56020
 
KDED - Deland, Florida, USA
Distance from station: Β 21mi, 34km
Ενημερώθηκε: Fri 09/21/18 5:15pm EDT
Μερικώς νεφελώδης
Μερικώς νεφελώδης
 Ανεμος από ΑΒΑ
Ανεμος: ΑΒΑ 14 mph , 22 km/h
Θερμοκρασία: 86°F , 30°C
Heat Index: 93°F , 34°C
Σημείο Δρόσου: 73°F , 23°C
Υγρασία: 66%
Βαρόμετρο: 30.02 inHg , 1016.6 hPa
Clouds: Μερικώς νεφελώδης
Visibility: 10 miles , 16 km
Cloud details: Μερικώς νεφελώδης 3300 ft
Μερικώς νεφελώδης 4300 ft
Μερικώς νεφελώδης 5000 ft
2018/09/21 21:15 KDED 212115Z AUTO 07012KT 10SM SCT033 SCT043 SCT050 30/23 A3002 RMK AO2
KMCO - Orlando, Florida, USA
Distance from station: Ν 24mi, 39km
Ενημερώθηκε: Fri 09/21/18 4:53pm EDT
Μερικώς νεφελώδης
Μερικώς νεφελώδης
 Ανεμος από ΒΑ
Ανεμος: ΒΑ 18 mph , 30 km/h
Θερμοκρασία: 88°F , 31°C
Heat Index: 96°F , 36°C
Σημείο Δρόσου: 73°F , 23°C
Υγρασία: 62%
Βαρόμετρο: 30.00 inHg , 1015.9 hPa
Clouds: Μερικώς νεφελώδης
Visibility: 10 miles , 16 km
Cloud details: Few Clouds 4900 ft
Μερικώς νεφελώδης 10000 ft
Μερικώς νεφελώδης 25000 ft
2018/09/21 20:53 KMCO 212053Z 05016KT 10SM FEW049 SCT100 SCT250 31/23 A3000 RMK AO2 SLP159 CB DSNT NE SE NW T03060228 56019
 
KLEE - Leesburg, Florida, USA
Distance from station: Δ 29mi, 47km
Ενημερώθηκε: Fri 09/21/18 4:53pm EDT
Ασθενής βροχή, Αίθριος
Ασθενής βροχή, Αίθριος
 Ανεμος από ΑΒΑ
Ανεμος: ΑΒΑ 14 mph , 22 km/h
Θερμοκρασία: 88°F , 31°C
Heat Index: 93°F , 34°C
Σημείο Δρόσου: 70°F , 21°C
Υγρασία: 55%
Βαρόμετρο: 30.03 inHg , 1016.9 hPa
Περίληψη: Ασθενής βροχή
Clouds: Αίθριος
Visibility: 10 miles , 16 km
2018/09/21 20:53 KLEE 212053Z 06012KT 10SM -RA CLR 31/21 A3003 RMK AO2 RAB44 SLP166 P0000 60000 T03110211 55016
KEVB - New Smyrna Beach, Florida, USA
Distance from station: ΒΑ 31mi, 49km
Ενημερώθηκε: Fri 09/21/18 4:47pm EDT
Σχεδόν νεφελώδης
Σχεδόν νεφελώδης
 Ανεμος από Α
Ανεμος: Α 12 mph , 19 km/h
Θερμοκρασία: 86°F , 30°C
Heat Index: 93°F , 34°C
Σημείο Δρόσου: 73°F , 23°C
Υγρασία: 66%
Βαρόμετρο: 30.05 inHg , 1017.6 hPa
Clouds: Σχεδόν νεφελώδης
Visibility: 10 miles , 16 km
Cloud details: Σχεδόν νεφελώδης 2800 ft
2018/09/21 20:47 KEVB 212047Z 09010KT 10SM BKN028 30/23 A3005
 
KDAB - Daytona Beach, Florida, USA
Distance from station: ΒΒΑ 33mi, 53km
Ενημερώθηκε: Fri 09/21/18 4:53pm EDT
Σχεδόν νεφελώδης
Σχεδόν νεφελώδης
 Ανεμος από Α
Ανεμος: Α 10 mph , 17 km/h
Θερμοκρασία: 84°F , 29°C
Heat Index: 92°F , 33°C
Σημείο Δρόσου: 75°F , 24°C
Υγρασία: 74%
Βαρόμετρο: 30.03 inHg , 1016.9 hPa
Clouds: Σχεδόν νεφελώδης
Visibility: 10 miles , 16 km
Cloud details: Μερικώς νεφελώδης 2800 ft
Σχεδόν νεφελώδης 15000 ft
2018/09/21 20:53 KDAB 212053Z 08009KT 10SM SCT028TCU BKN150 29/24 A3003 RMK AO2 SLP169 TCU OHD-SW-W CB DSNT NE E T02940239 56020
KISM - Kissimmee/Orland, Florida, USA
Distance from station: Ν 34mi, 55km
Ενημερώθηκε: Fri 09/21/18 4:56pm EDT
Αίθριος
Αίθριος
 Ανεμος από Α
Ανεμος: Α 5 mph , 7 km/h
Θερμοκρασία: 82°F , 28°C
Heat Index: 87°F , 31°C
Σημείο Δρόσου: 73°F , 23°C
Υγρασία: 74%
Βαρόμετρο: 30.01 inHg , 1016.3 hPa
Clouds: Αίθριος
Visibility: 10 miles , 16 km
2018/09/21 20:56 KISM 212056Z 10004KT 10SM CLR 28/23 A3001 RMK AO2 SLP163 T02830233 56022
 
KTIX - Titusville, Florida, USA
Distance from station: ΑΝΑ 38mi, 61km
Ενημερώθηκε: Fri 09/21/18 4:45pm EDT
Μερικώς νεφελώδης
Μερικώς νεφελώδης
 Ανεμος από ΒΑ
Ανεμος: ΒΑ 18 mph , 30 km/h
Θερμοκρασία: 88°F , 31°C
Heat Index: 95°F , 35°C
Σημείο Δρόσου: 72°F , 22°C
Υγρασία: 59%
Βαρόμετρο: 30.03 inHg , 1016.9 hPa
Clouds: Μερικώς νεφελώδης
Visibility: 7 miles , 11 km
Cloud details: Μερικώς νεφελώδης 3200 ft
Μερικώς νεφελώδης 4800 ft
2018/09/21 20:45 KTIX 212045Z 05016KT 7SM SCT032 SCT048 31/22 A3003
KOMN - Ormond Beach Vor, Florida, USA
Distance from station: ΒΒΑ 39mi, 63km
Ενημερώθηκε: Fri 09/21/18 4:50pm EDT
Μερικώς νεφελώδης
Μερικώς νεφελώδης
 Ανεμος από ΑΒΑ
Ανεμος: ΑΒΑ 14 mph , 22 km/h, Ριπή: 21 mph , 33 km/h
Θερμοκρασία: 84°F , 29°C
Heat Index: 90°F , 32°C
Σημείο Δρόσου: 73°F , 23°C
Υγρασία: 70%
Βαρόμετρο: 30.04 inHg , 1017.3 hPa
Clouds: Μερικώς νεφελώδης
Visibility: 7 miles , 11 km
Cloud details: Μερικώς νεφελώδης 2400 ft
Μερικώς νεφελώδης 4000 ft
2018/09/21 20:50 KOMN 212050Z 06012G18KT 7SM SCT024 SCT040 29/23 A3004
 
KTTS - Nasa Shuttle Fcl, Florida, USA
Distance from station: ΑΝΑ 39mi, 63km
Ενημερώθηκε: Fri 09/21/18 11:56am EDT
NOT Current
Μερικώς νεφελώδης
Μερικώς νεφελώδης
 Ανεμος από Α
Ανεμος: Α 8 mph , 13 km/h
Θερμοκρασία: 88°F , 31°C
Heat Index: 95°F , 35°C
Σημείο Δρόσου: 72°F , 22°C
Υγρασία: 59%
Βαρόμετρο: 30.10 inHg , 1019.3 hPa
Clouds: Μερικώς νεφελώδης
Visibility: 10 miles , 16 km
Cloud details: Μερικώς νεφελώδης 3300 ft
2018/09/21 15:56 KTTS 211556Z AUTO 09007KT 10SM SCT033 31/22 A3010 RMK AO2 SLP197 T03070223 $
KVVG - The Villages, Florida, USA
Distance from station: ΔΒΔ 40mi, 64km
Ενημερώθηκε: Wed 02/14/18 2:10pm EST
NOT Current

 Ανεμος από calm
Ανεμος: Απνοια
Θερμοκρασία: 73°F , 23°C
Σημείο Δρόσου: 66°F , 19°C
Υγρασία: 78%
Βαρόμετρο: 30.29 inHg , 1025.7 hPa
Visibility: 10 miles , 16 km
2018/02/14 19:10 KVVG 141910Z AUTO 00000KT 10SM 23/19 A3029 RMK A01
 
KXMR - Cape Canaveral, Florida, USA
Distance from station: ΑΝΑ 51mi, 83km
Ενημερώθηκε: Fri 09/21/18 11:56am EDT
NOT Current
Few Clouds
Few Clouds
 Ανεμος από ΒΑ
Ανεμος: ΒΑ 9 mph , 15 km/h
Θερμοκρασία: 88°F , 31°C
Heat Index: 96°F , 36°C
Σημείο Δρόσου: 73°F , 23°C
Υγρασία: 62%
Βαρόμετρο: 30.09 inHg , 1019 hPa
Clouds: Few Clouds
Visibility: 10 miles , 16 km
Cloud details: Few Clouds 2800 ft
2018/09/21 15:56 KXMR 211556Z AUTO 05008KT 10SM FEW028 31/23 A3009 RMK AO2 SLP192 T03100226 $
KGIF - Winter Haven, Florida, USA
Distance from station: ΝΝΔ 55mi, 88km
Ενημερώθηκε: Fri 09/21/18 4:53pm EDT
Αίθριος
Αίθριος
 Ανεμος από Α
Ανεμος: Α 8 mph , 13 km/h
Θερμοκρασία: 84°F , 29°C
Heat Index: 90°F , 32°C
Σημείο Δρόσου: 73°F , 23°C
Υγρασία: 70%
Βαρόμετρο: 30.02 inHg , 1016.6 hPa
Clouds: Αίθριος
Visibility: 10 miles , 16 km
2018/09/21 20:53 KGIF 212053Z AUTO 09007KT 10SM CLR 29/23 A3002 RMK AO2 RAB00E17 SLP162 P0000 60000 T02890228 56022
 
KCOF - Patrick Afb/Coco, Florida, USA
Distance from station: ΝΑ 58mi, 94km
Ενημερώθηκε: Fri 09/21/18 1:56pm EDT
NOT Current
Αίθριος
Αίθριος
 Ανεμος από ΑΒΑ
Ανεμος: ΑΒΑ 10 mph , 17 km/h
Θερμοκρασία: 88°F , 31°C
Heat Index: 96°F , 36°C
Σημείο Δρόσου: 73°F , 23°C
Υγρασία: 62%
Βαρόμετρο: 30.07 inHg , 1018.3 hPa
Clouds: Αίθριος
Visibility: 10 miles , 16 km
2018/09/21 17:56 KCOF 211756Z AUTO 06009KT 10SM CLR 31/23 A3007 RMK AO2 LTG DSNT SW DZB1611E1621 SLP187 60000 T03090232 10312 20277 $
KINF - Inverness, Florida, USA
Distance from station: Δ 59mi, 95km
Ενημερώθηκε: Fri 09/21/18 11:35am EDT
NOT Current
Haze, Σχεδόν νεφελώδης
Haze, Σχεδόν νεφελώδης
 Ανεμος από calm
Ανεμος: Απνοια
Θερμοκρασία: 88°F , 31°C
Heat Index: 100°F , 38°C
Σημείο Δρόσου: 77°F , 25°C
Υγρασία: 70%
Βαρόμετρο: 30.11 inHg , 1019.6 hPa
Περίληψη: Haze
Clouds: Σχεδόν νεφελώδης
Visibility: 5 miles , 8 km
Cloud details: Σχεδόν νεφελώδης 2700 ft
Σχεδόν νεφελώδης 3700 ft
Σχεδόν νεφελώδης 5000 ft
2018/09/21 15:35 KINF 211535Z AUTO 00000KT 5SM HZ BKN027 BKN037 BKN050 31/25 A3011 RMK AO2
 
KOCF - Ocala Muni, Florida, USA
Distance from station: ΔΒΔ 60mi, 96km
Ενημερώθηκε: Fri 09/21/18 4:51pm EDT
Μερικώς νεφελώδης
Μερικώς νεφελώδης
 Ανεμος από ΑΒΑ
Ανεμος: ΑΒΑ 7 mph , 11 km/h
Θερμοκρασία: 91°F , 33°C
Heat Index: 95°F , 35°C
Σημείο Δρόσου: 68°F , 20°C
Υγρασία: 46%
Βαρόμετρο: 30.01 inHg , 1016.3 hPa
Clouds: Μερικώς νεφελώδης
Visibility: 10 miles , 16 km
Cloud details: Μερικώς νεφελώδης 5500 ft
2018/09/21 20:51 KOCF 212051Z 06006KT 10SM SCT055 33/20 A3001 RMK AO2 SLP163 T03280200 56021 $
KZPH - Zephyrhills, Florida, USA
Distance from station: ΝΔ 61mi, 99km
Ενημερώθηκε: Fri 09/21/18 5:15pm EDT
Αίθριος
Αίθριος
 Ανεμος από calm
Ανεμος: Απνοια
Θερμοκρασία: 86°F , 30°C
Heat Index: 95°F , 35°C
Σημείο Δρόσου: 75°F , 24°C
Υγρασία: 70%
Βαρόμετρο: 30.02 inHg , 1016.6 hPa
Clouds: Αίθριος
2018/09/21 21:15 KZPH 212115Z AUTO 00000KT CLR 30/24 A3002 RMK AO2 LTG DSNT W T03030235 PWINO
 
KMLB - Melbourne, Florida, USA
Distance from station: ΝΑ 62mi, 100km
Ενημερώθηκε: Fri 09/21/18 4:53pm EDT
Few Clouds
Few Clouds
 Ανεμος από ΑΒΑ
Ανεμος: ΑΒΑ 13 mph , 20 km/h
Θερμοκρασία: 88°F , 31°C
Heat Index: 95°F , 35°C
Σημείο Δρόσου: 72°F , 22°C
Υγρασία: 59%
Βαρόμετρο: 30.01 inHg , 1016.3 hPa
Clouds: Few Clouds
Visibility: 10 miles , 16 km
Cloud details: Few Clouds 2900 ft
2018/09/21 20:53 KMLB 212053Z 07011KT 10SM FEW029 31/22 A3001 RMK AO2 SLP162 T03110222 56019
KBOW - Bartow Municipal, Florida, USA
Distance from station: ΝΝΔ 63mi, 102km
Ενημερώθηκε: Fri 09/21/18 4:45pm EDT

 Ανεμος από ΝΑ
Ανεμος: ΝΑ 6 mph , 9 km/h
2018/09/21 20:45 KBOW 212045Z 13005KT 10 SM SCT050 27/23 A3001